sensor_id;sensor_type;location;lat;lon;timestamp;pressure;altitude;pressure_sealevel;temperature;humidity
10167;BME280;62970;53.130;8.244;2023-03-19T12:08:49;101419.84;;;14.85;56.02
10167;BME280;62970;53.130;8.244;2023-03-19T12:11:23;101423.31;;;14.85;55.75
10167;BME280;62970;53.130;8.244;2023-03-19T12:14:20;101416.34;;;14.84;55.77
10167;BME280;62970;53.130;8.244;2023-03-19T12:17:12;101413.69;;;14.86;55.01
10167;BME280;62970;53.130;8.244;2023-03-19T12:20:35;101405.56;;;14.93;55.45
10167;BME280;62970;53.130;8.244;2023-03-19T12:23:22;101405.31;;;15.01;55.29
10167;BME280;62970;53.130;8.244;2023-03-19T12:26:06;101406.59;;;15.16;54.90
10167;BME280;62970;53.130;8.244;2023-03-19T12:28:43;101401.88;;;15.27;54.37
10167;BME280;62970;53.130;8.244;2023-03-19T12:31:33;101402.41;;;15.37;54.40
10167;BME280;62970;53.130;8.244;2023-03-19T12:34:23;101401.41;;;15.41;54.06
10167;BME280;62970;53.130;8.244;2023-03-19T12:37:04;101400.34;;;15.46;53.99
10167;BME280;62970;53.130;8.244;2023-03-19T12:39:38;101400.28;;;15.48;53.18
10167;BME280;62970;53.130;8.244;2023-03-19T12:42:17;101393.38;;;15.45;53.14
10167;BME280;62970;53.130;8.244;2023-03-19T12:44:53;101390.94;;;15.39;53.01
10167;BME280;62970;53.130;8.244;2023-03-19T12:47:30;101391.09;;;15.35;52.59
10167;BME280;62970;53.130;8.244;2023-03-19T12:50:03;101394.78;;;15.29;53.16
10167;BME280;62970;53.130;8.244;2023-03-19T12:52:37;101395.66;;;15.29;52.33
10167;BME280;62970;53.130;8.244;2023-03-19T12:55:15;101393.88;;;15.30;52.83
10167;BME280;62970;53.130;8.244;2023-03-19T12:57:52;101394.03;;;15.25;52.16
10167;BME280;62970;53.130;8.244;2023-03-19T13:00:30;101394.25;;;15.18;51.92
10167;BME280;62970;53.130;8.244;2023-03-19T13:03:06;101393.75;;;15.07;51.78
10167;BME280;62970;53.130;8.244;2023-03-19T13:05:46;101393.13;;;14.98;52.14
10167;BME280;62970;53.130;8.244;2023-03-19T13:08:23;101392.28;;;14.98;52.06
10167;BME280;62970;53.130;8.244;2023-03-19T13:11:16;101391.94;;;15.09;52.43
10167;BME280;62970;53.130;8.244;2023-03-19T13:13:57;101395.75;;;15.26;51.83
10167;BME280;62970;53.130;8.244;2023-03-19T13:16:37;101388.22;;;15.42;51.77
10167;BME280;62970;53.130;8.244;2023-03-19T13:19:20;101396.38;;;15.59;51.05
10167;BME280;62970;53.130;8.244;2023-03-19T13:21:55;101396.84;;;15.72;50.59
10167;BME280;62970;53.130;8.244;2023-03-19T13:24:28;101400.75;;;15.85;50.53
10167;BME280;62970;53.130;8.244;2023-03-19T13:27:00;101396.88;;;15.95;50.41
10167;BME280;62970;53.130;8.244;2023-03-19T13:29:34;101382.75;;;15.98;49.91
10167;BME280;62970;53.130;8.244;2023-03-19T13:32:06;101396.78;;;15.99;49.89
10167;BME280;62970;53.130;8.244;2023-03-19T13:34:38;101396.81;;;15.97;49.41
10167;BME280;62970;53.130;8.244;2023-03-19T13:37:13;101403.97;;;15.93;49.46
10167;BME280;62970;53.130;8.244;2023-03-19T13:39:45;101404.13;;;15.89;49.48
10167;BME280;62970;53.130;8.244;2023-03-19T13:42:35;101404.50;;;15.78;49.70
10167;BME280;62970;53.130;8.244;2023-03-19T13:45:37;101398.88;;;15.64;50.22
10167;BME280;62970;53.130;8.244;2023-03-19T13:48:31;101400.88;;;15.56;50.02
10167;BME280;62970;53.130;8.244;2023-03-19T13:51:23;101407.91;;;15.55;49.94
10167;BME280;62970;53.130;8.244;2023-03-19T13:53:57;101407.72;;;15.61;49.66
10167;BME280;62970;53.130;8.244;2023-03-19T13:59:50;101400.16;;;15.77;49.50
10167;BME280;62970;53.130;8.244;2023-03-19T14:02:52;101399.19;;;15.80;49.71
10167;BME280;62970;53.130;8.244;2023-03-19T14:05:21;101398.22;;;15.82;49.41
10167;BME280;62970;53.130;8.244;2023-03-19T14:07:53;101400.88;;;15.82;49.32
10167;BME280;62970;53.130;8.244;2023-03-19T14:10:27;101397.31;;;15.83;48.80
10167;BME280;62970;53.130;8.244;2023-03-19T17:30:13;101494.44;;;12.23;53.74
10167;BME280;62970;53.130;8.244;2023-03-19T17:32:45;101503.25;;;12.17;54.46
10167;BME280;62970;53.130;8.244;2023-03-19T17:35:19;101509.47;;;12.11;54.35
10167;BME280;62970;53.130;8.244;2023-03-19T17:37:49;101513.03;;;12.07;54.08
10167;BME280;62970;53.130;8.244;2023-03-19T17:40:20;101509.56;;;12.05;54.19
10167;BME280;62970;53.130;8.244;2023-03-19T17:42:52;101506.06;;;12.06;54.39
10167;BME280;62970;53.130;8.244;2023-03-19T17:45:27;101513.88;;;12.08;54.08
10167;BME280;62970;53.130;8.244;2023-03-19T17:47:57;101512.94;;;12.12;54.40
10167;BME280;62970;53.130;8.244;2023-03-19T17:50:29;101519.84;;;12.16;54.16
10167;BME280;62970;53.130;8.244;2023-03-19T17:52:59;101523.25;;;12.20;54.45
10167;BME280;62970;53.130;8.244;2023-03-19T17:55:29;101520.59;;;12.23;54.23
10167;BME280;62970;53.130;8.244;2023-03-19T17:57:59;101530.97;;;12.26;54.87
10167;BME280;62970;53.130;8.244;2023-03-19T18:00:35;101537.03;;;12.29;54.44
10167;BME280;62970;53.130;8.244;2023-03-19T18:03:05;101534.34;;;12.32;54.94
10167;BME280;62970;53.130;8.244;2023-03-19T18:05:34;101543.03;;;12.34;55.03
10167;BME280;62970;53.130;8.244;2023-03-19T18:08:03;101537.78;;;12.34;54.74
10167;BME280;62970;53.130;8.244;2023-03-19T18:10:33;101542.16;;;12.34;54.63
10167;BME280;62970;53.130;8.244;2023-03-19T18:13:05;101559.69;;;12.29;54.58
10167;BME280;62970;53.130;8.244;2023-03-19T18:15:38;101563.28;;;12.23;54.94
10167;BME280;62970;53.130;8.244;2023-03-19T18:18:15;101556.44;;;12.16;55.01
10167;BME280;62970;53.130;8.244;2023-03-19T18:20:46;101572.25;;;12.08;54.86
10167;BME280;62970;53.130;8.244;2023-03-19T18:23:16;101567.16;;;12.01;55.43
10167;BME280;62970;53.130;8.244;2023-03-19T18:25:47;101563.81;;;11.93;55.23
10167;BME280;62970;53.130;8.244;2023-03-19T18:28:16;101577.03;;;11.84;55.66
10167;BME280;62970;53.130;8.244;2023-03-19T18:30:48;101582.41;;;11.74;55.35
10167;BME280;62970;53.130;8.244;2023-03-19T18:33:23;101584.28;;;11.66;56.00
10167;BME280;62970;53.130;8.244;2023-03-19T18:35:53;101593.09;;;11.59;56.29
10167;BME280;62970;53.130;8.244;2023-03-19T18:38:25;101593.25;;;11.48;56.02
10167;BME280;62970;53.130;8.244;2023-03-19T18:40:54;101602.00;;;11.41;56.13
10167;BME280;62970;53.130;8.244;2023-03-19T18:43:24;101605.63;;;11.33;56.26
10167;BME280;62970;53.130;8.244;2023-03-19T18:45:56;101609.22;;;11.23;56.51
10167;BME280;62970;53.130;8.244;2023-03-19T18:48:27;101610.19;;;11.15;56.63
10167;BME280;62970;53.130;8.244;2023-03-19T18:50:58;101613.78;;;11.07;56.80
10167;BME280;62970;53.130;8.244;2023-03-19T18:53:30;101623.47;;;10.97;56.96
10167;BME280;62970;53.130;8.244;2023-03-19T18:55:59;101634.03;;;10.88;57.24
10167;BME280;62970;53.130;8.244;2023-03-19T18:58:33;101633.25;;;10.78;57.65
10167;BME280;62970;53.130;8.244;2023-03-19T19:01:06;101638.56;;;10.71;57.31
10167;BME280;62970;53.130;8.244;2023-03-19T19:03:35;101649.03;;;10.68;58.12
10167;BME280;62970;53.130;8.244;2023-03-19T19:06:08;101651.59;;;10.71;57.72
10167;BME280;62970;53.130;8.244;2023-03-19T19:08:37;101656.75;;;10.75;58.04
10167;BME280;62970;53.130;8.244;2023-03-19T19:11:07;101657.59;;;10.79;58.22
10167;BME280;62970;53.130;8.244;2023-03-19T19:13:36;101659.28;;;10.84;57.95
10167;BME280;62970;53.130;8.244;2023-03-19T19:16:17;101663.56;;;10.90;57.93
10167;BME280;62970;53.130;8.244;2023-03-19T19:18:51;101666.13;;;10.93;58.08
10167;BME280;62970;53.130;8.244;2023-03-19T19:21:20;101661.78;;;10.95;58.00
10167;BME280;62970;53.130;8.244;2023-03-19T19:23:49;101666.13;;;10.95;57.59
10167;BME280;62970;53.130;8.244;2023-03-19T19:28:52;101670.50;;;10.91;57.73
10167;BME280;62970;53.130;8.244;2023-03-19T19:31:28;101673.16;;;10.87;57.43
10167;BME280;62970;53.130;8.244;2023-03-19T19:33:58;101681.91;;;10.84;57.86
10167;BME280;62970;53.130;8.244;2023-03-19T19:36:28;101676.72;;;10.79;57.56
10167;BME280;62970;53.130;8.244;2023-03-19T19:38:57;101682.00;;;10.75;57.54
10167;BME280;62970;53.130;8.244;2023-03-19T19:41:27;101688.09;;;10.74;57.64
10167;BME280;62970;53.130;8.244;2023-03-19T19:43:57;101688.97;;;10.71;57.71
10167;BME280;62970;53.130;8.244;2023-03-19T19:46:31;101687.25;;;10.70;57.80
10167;BME280;62970;53.130;8.244;2023-03-19T19:49:01;101694.19;;;10.71;58.01
10167;BME280;62970;53.130;8.244;2023-03-19T19:51:31;101695.94;;;10.72;57.99
10167;BME280;62970;53.130;8.244;2023-03-19T19:54:00;101693.31;;;10.72;58.13
10167;BME280;62970;53.130;8.244;2023-03-19T19:56:30;101694.19;;;10.71;58.25
10167;BME280;62970;53.130;8.244;2023-03-19T19:59:06;101698.53;;;10.72;58.05
10167;BME280;62970;53.130;8.244;2023-03-19T20:01:40;101700.28;;;10.70;57.66
10167;BME280;62970;53.130;8.244;2023-03-19T20:04:13;101700.31;;;10.69;57.88
10167;BME280;62970;53.130;8.244;2023-03-19T20:06:42;101710.75;;;10.69;58.04
10167;BME280;62970;53.130;8.244;2023-03-19T20:09:11;101702.06;;;10.68;57.81
10167;BME280;62970;53.130;8.244;2023-03-19T20:11:43;101706.38;;;10.71;58.36
10167;BME280;62970;53.130;8.244;2023-03-19T20:14:13;101712.47;;;10.70;58.12
10167;BME280;62970;53.130;8.244;2023-03-19T20:16:45;101720.28;;;10.70;57.92
10167;BME280;62970;53.130;8.244;2023-03-19T20:19:17;101715.94;;;10.72;58.32
10167;BME280;62970;53.130;8.244;2023-03-19T20:21:47;101711.56;;;10.72;58.33
10167;BME280;62970;53.130;8.244;2023-03-19T20:24:16;101718.53;;;10.72;57.84
10167;BME280;62970;53.130;8.244;2023-03-19T20:26:46;101731.56;;;10.72;58.11
10167;BME280;62970;53.130;8.244;2023-03-19T20:29:16;101722.88;;;10.73;57.96
10167;BME280;62970;53.130;8.244;2023-03-19T20:31:48;101736.78;;;10.72;58.50
10167;BME280;62970;53.130;8.244;2023-03-19T20:34:18;101730.72;;;10.71;58.28
10167;BME280;62970;53.130;8.244;2023-03-19T20:36:47;101732.47;;;10.71;58.25
10167;BME280;62970;53.130;8.244;2023-03-19T20:39:18;101734.19;;;10.70;58.78
10167;BME280;62970;53.130;8.244;2023-03-19T20:41:47;101741.16;;;10.71;58.61
10167;BME280;62970;53.130;8.244;2023-03-19T20:44:21;101735.94;;;10.71;58.51
10167;BME280;62970;53.130;8.244;2023-03-19T20:46:57;101736.78;;;10.72;58.38
10167;BME280;62970;53.130;8.244;2023-03-19T20:49:27;101736.78;;;10.73;58.71
10167;BME280;62970;53.130;8.244;2023-03-19T20:51:56;101728.94;;;10.75;58.95
10167;BME280;62970;53.130;8.244;2023-03-19T20:54:26;101724.59;;;10.75;58.94
10167;BME280;62970;53.130;8.244;2023-03-19T20:56:55;101725.47;;;10.76;59.00
10167;BME280;62970;53.130;8.244;2023-03-19T20:59:25;101724.56;;;10.77;58.52
10167;BME280;62970;53.130;8.244;2023-03-19T21:01:58;101721.09;;;10.78;59.10
10167;BME280;62970;53.130;8.244;2023-03-19T21:04:27;101723.69;;;10.79;58.72
10167;BME280;62970;53.130;8.244;2023-03-19T21:06:57;101721.06;;;10.81;59.03
10167;BME280;62970;53.130;8.244;2023-03-19T21:09:27;101724.53;;;10.80;58.62
10167;BME280;62970;53.130;8.244;2023-03-19T21:11:57;101719.31;;;10.80;58.76
10167;BME280;62970;53.130;8.244;2023-03-19T21:14:26;101726.25;;;10.82;59.16
10167;BME280;62970;53.130;8.244;2023-03-19T21:16:58;101720.19;;;10.82;58.76
10167;BME280;62970;53.130;8.244;2023-03-19T21:19:28;101724.50;;;10.83;59.11
10167;BME280;62970;53.130;8.244;2023-03-19T21:21:57;101718.41;;;10.84;59.00
10167;BME280;62970;53.130;8.244;2023-03-19T21:24:30;101719.28;;;10.84;59.36
10167;BME280;62970;53.130;8.244;2023-03-19T21:26:59;101716.66;;;10.86;59.44
10167;BME280;62970;53.130;8.244;2023-03-19T21:29:30;101722.72;;;10.88;59.05
10167;BME280;62970;53.130;8.244;2023-03-19T21:32:09;101724.47;;;10.88;59.47
10167;BME280;62970;53.130;8.244;2023-03-19T21:34:43;101721.84;;;10.89;59.05
10167;BME280;62970;53.130;8.244;2023-03-19T21:37:14;101724.47;;;10.89;58.96
10167;BME280;62970;53.130;8.244;2023-03-19T21:39:59;101727.97;;;10.87;58.96
10167;BME280;62970;53.130;8.244;2023-03-19T21:42:29;101734.03;;;10.87;59.04
10167;BME280;62970;53.130;8.244;2023-03-19T21:44:59;101729.72;;;10.86;59.16
10167;BME280;62970;53.130;8.244;2023-03-19T21:47:31;101727.13;;;10.84;59.36
10167;BME280;62970;53.130;8.244;2023-03-19T21:50:01;101721.88;;;10.84;59.50
10167;BME280;62970;53.130;8.244;2023-03-19T21:52:30;101727.13;;;10.84;59.62
10167;BME280;62970;53.130;8.244;2023-03-19T21:54:59;101734.94;;;10.83;59.52
10167;BME280;62970;53.130;8.244;2023-03-19T21:57:29;101730.59;;;10.83;59.29
10167;BME280;62970;53.130;8.244;2023-03-19T21:59:58;101731.47;;;10.82;59.14
10167;BME280;62970;53.130;8.244;2023-03-19T22:02:48;101723.69;;;10.79;59.19
10167;BME280;62970;53.130;8.244;2023-03-19T22:05:22;101727.16;;;10.80;59.17
10167;BME280;62970;53.130;8.244;2023-03-19T22:07:52;101731.50;;;10.81;59.23
10167;BME280;62970;53.130;8.244;2023-03-19T22:10:25;101739.34;;;10.79;59.24
10167;BME280;62970;53.130;8.244;2023-03-19T22:12:56;101745.44;;;10.77;59.40
10167;BME280;62970;53.130;8.244;2023-03-19T22:15:30;101748.09;;;10.74;59.17
10167;BME280;62970;53.130;8.244;2023-03-19T22:18:09;101750.72;;;10.72;59.69
10167;BME280;62970;53.130;8.244;2023-03-19T22:20:41;101755.06;;;10.70;59.21
10167;BME280;62970;53.130;8.244;2023-03-19T22:23:11;101750.75;;;10.68;59.49
10167;BME280;62970;53.130;8.244;2023-03-19T22:25:43;101740.31;;;10.66;59.58
10167;BME280;62970;53.130;8.244;2023-03-19T22:28:16;101749.03;;;10.65;59.36
10167;BME280;62970;53.130;8.244;2023-03-19T22:30:48;101749.88;;;10.66;59.80
10167;BME280;62970;53.130;8.244;2023-03-19T22:33:22;101742.09;;;10.64;59.47
10167;BME280;62970;53.130;8.244;2023-03-19T22:35:53;101740.34;;;10.65;59.54
10167;BME280;62970;53.130;8.244;2023-03-19T22:38:22;101743.81;;;10.64;59.34
10167;BME280;62970;53.130;8.244;2023-03-19T22:40:54;101745.56;;;10.63;59.36
10167;BME280;62970;53.130;8.244;2023-03-19T22:43:28;101740.38;;;10.62;59.53
10167;BME280;62970;53.130;8.244;2023-03-19T22:46:01;101744.75;;;10.58;59.09
10167;BME280;62970;53.130;8.244;2023-03-19T22:48:34;101737.81;;;10.54;59.60
10167;BME280;62970;53.130;8.244;2023-03-19T22:51:05;101730.00;;;10.52;59.40
10167;BME280;62970;53.130;8.244;2023-03-19T22:53:36;101723.09;;;10.48;59.31
10167;BME280;62970;53.130;8.244;2023-03-19T22:56:07;101724.84;;;10.45;59.54
10167;BME280;62970;53.130;8.244;2023-03-19T22:58:38;101734.44;;;10.41;59.03
10167;BME280;62970;53.130;8.244;2023-03-19T23:01:30;101728.41;;;10.36;59.44
10167;BME280;62970;53.130;8.244;2023-03-19T23:04:18;101736.25;;;10.33;59.23
10167;BME280;62970;53.130;8.244;2023-03-19T23:06:48;101737.13;;;10.32;59.61
10167;BME280;62970;53.130;8.244;2023-03-19T23:09:21;101739.75;;;10.29;59.40
10167;BME280;62970;53.130;8.244;2023-03-19T23:11:52;101746.72;;;10.27;59.77
10167;BME280;62970;53.130;8.244;2023-03-19T23:14:23;101739.78;;;10.23;59.43
10167;BME280;62970;53.130;8.244;2023-03-19T23:16:53;101745.88;;;10.22;59.45
10167;BME280;62970;53.130;8.244;2023-03-19T23:19:29;101743.28;;;10.21;59.41
10167;BME280;62970;53.130;8.244;2023-03-19T23:22:01;101742.44;;;10.20;59.66
10167;BME280;62970;53.130;8.244;2023-03-19T23:24:30;101750.25;;;10.18;59.66
10167;BME280;62970;53.130;8.244;2023-03-19T23:27:00;101750.25;;;10.17;59.85
10167;BME280;62970;53.130;8.244;2023-03-19T23:29:42;101747.66;;;10.17;59.72
10167;BME280;62970;53.130;8.244;2023-03-19T23:32:12;101751.97;;;10.15;59.86
10167;BME280;62970;53.130;8.244;2023-03-19T23:34:44;101753.72;;;10.14;59.63
10167;BME280;62970;53.130;8.244;2023-03-19T23:37:14;101751.09;;;10.16;60.11
10167;BME280;62970;53.130;8.244;2023-03-19T23:39:43;101745.03;;;10.15;60.26
10167;BME280;62970;53.130;8.244;2023-03-19T23:42:25;101746.78;;;10.13;60.00
10167;BME280;62970;53.130;8.244;2023-03-19T23:44:58;101750.25;;;10.14;60.00
10167;BME280;62970;53.130;8.244;2023-03-19T23:47:29;101759.81;;;10.12;60.34
10167;BME280;62970;53.130;8.244;2023-03-19T23:50:01;101757.22;;;10.10;59.81
10167;BME280;62970;53.130;8.244;2023-03-19T23:52:30;101753.75;;;10.10;59.91
10167;BME280;62970;53.130;8.244;2023-03-19T23:55:00;101758.09;;;10.09;60.01
10167;BME280;62970;53.130;8.244;2023-03-19T23:57:30;101755.50;;;10.08;60.10
10167;BME280;62970;53.130;8.244;2023-03-19T23:59:59;101752.91;;;10.08;60.03
